createdAt,value
2023-02-19T00:02:11.073Z,99688.72
2023-02-19T00:04:41.146Z,99675.13
2023-02-19T00:07:09.547Z,99669.19
2023-02-19T00:09:37.964Z,99669.19
2023-02-19T00:12:07.164Z,99670.94
2023-02-19T00:14:35.657Z,99676.03
2023-02-19T00:17:04.094Z,99674.34
2023-02-19T00:19:32.932Z,99674.34
2023-02-19T00:22:02.809Z,99673.50
2023-02-19T00:24:31.242Z,99675.19
2023-02-19T00:26:59.707Z,99666.75
2023-02-19T00:29:29.011Z,99668.44
2023-02-19T00:31:57.797Z,99659.09
2023-02-19T00:34:26.750Z,99673.56
2023-02-19T00:36:55.204Z,99654.00
2023-02-19T00:39:25.040Z,99663.44
2023-02-19T00:41:53.668Z,99656.69
2023-02-19T00:44:22.364Z,99656.69
2023-02-19T00:46:50.840Z,99660.13
2023-02-19T00:49:23.381Z,99659.22
2023-02-19T00:51:54.247Z,99659.28
2023-02-19T00:54:24.466Z,99657.63
2023-02-19T00:56:53.295Z,99655.91
2023-02-19T00:59:21.774Z,99665.25
2023-02-19T01:01:50.802Z,99663.56
2023-02-19T01:04:19.213Z,99669.50
2023-02-19T01:06:49.001Z,99668.66
2023-02-19T01:09:17.433Z,99659.31
2023-02-19T01:11:47.770Z,99655.91
2023-02-19T01:14:16.160Z,99658.47
2023-02-19T01:16:44.736Z,99665.28
2023-02-19T01:19:16.048Z,99655.13
2023-02-19T01:21:44.734Z,99658.50
2023-02-19T01:24:13.368Z,99650.03
2023-02-19T01:26:41.855Z,99653.41
2023-02-19T01:29:11.842Z,99650.06
2023-02-19T01:31:42.416Z,99648.38
2023-02-19T01:34:13.266Z,99649.25
2023-02-19T01:36:41.861Z,99650.94
2023-02-19T01:39:12.006Z,99657.78
2023-02-19T01:41:42.727Z,99656.03
2023-02-19T01:45:02.888Z,99667.94
2023-02-19T01:47:33.184Z,99667.94
2023-02-19T01:50:01.705Z,99659.44
2023-02-19T01:52:35.603Z,99664.53
2023-02-19T01:55:08.405Z,99663.69
2023-02-19T01:57:41.908Z,99650.06
2023-02-19T02:00:15.735Z,99660.28
2023-02-19T02:02:52.970Z,99654.34
2023-02-19T02:05:37.304Z,99657.75
2023-02-19T02:08:23.979Z,99657.75
2023-02-19T02:10:53.901Z,99661.13
2023-02-19T02:13:22.936Z,99661.97
2023-02-19T02:16:03.669Z,99656.03
2023-02-19T02:18:48.722Z,99647.56
2023-02-19T02:21:51.250Z,99653.50
2023-02-19T02:24:58.970Z,99656.91
2023-02-19T02:27:42.121Z,99657.75
2023-02-19T02:30:33.002Z,99656.88
2023-02-19T02:33:13.449Z,99648.41
2023-02-19T02:35:48.833Z,99659.44
2023-02-19T02:38:21.994Z,99667.88
2023-02-19T02:40:50.773Z,99667.88
2023-02-19T02:43:19.232Z,99666.16
2023-02-19T02:45:49.315Z,99655.94
2023-02-19T02:48:28.783Z,99648.28
2023-02-19T02:51:03.957Z,99664.41
2023-02-19T02:53:55.590Z,99657.59
2023-02-19T02:56:26.206Z,99661.00
2023-02-19T02:58:57.327Z,99659.31
2023-02-19T03:01:50.217Z,99651.69
2023-02-19T03:04:26.152Z,99650.84
2023-02-19T03:06:56.603Z,99650.84
2023-02-19T03:09:31.927Z,99649.97
2023-02-19T03:12:22.078Z,99645.72
2023-02-19T03:15:15.129Z,99647.38
2023-02-19T03:18:09.868Z,99653.28
2023-02-19T03:20:45.734Z,99653.28
2023-02-19T03:23:17.221Z,99657.53
2023-02-19T03:26:03.607Z,99643.06
2023-02-19T03:28:54.824Z,99658.31
2023-02-19T03:31:28.664Z,99658.28
2023-02-19T03:34:03.952Z,99656.56
2023-02-19T03:36:41.298Z,99661.59
2023-02-19T03:39:12.458Z,99653.97
2023-02-19T03:41:50.453Z,99645.44
2023-02-19T03:44:26.467Z,99653.91
2023-02-19T03:47:03.669Z,99645.41
2023-02-19T03:49:43.797Z,99646.28
2023-02-19T03:52:20.179Z,99635.22
2023-02-19T03:54:58.873Z,99637.75
2023-02-19T03:57:35.320Z,99628.34
2023-02-19T04:00:11.680Z,99630.03
2023-02-19T04:02:45.906Z,99624.84
2023-02-19T04:05:19.658Z,99623.09
2023-02-19T04:07:52.019Z,99624.72
2023-02-19T04:10:21.813Z,99628.09
2023-02-19T04:12:57.807Z,99636.53
2023-02-19T04:15:32.901Z,99639.94
2023-02-19T04:18:07.327Z,99619.47
2023-02-19T04:20:44.385Z,99610.09
2023-02-19T04:23:13.789Z,99615.19
2023-02-19T04:25:46.397Z,99616.84
2023-02-19T04:28:16.641Z,99619.38
2023-02-19T04:30:46.095Z,99613.44
2023-02-19T04:33:19.943Z,99613.44
2023-02-19T04:35:50.184Z,99609.22
2023-02-19T04:38:18.818Z,99604.97
2023-02-19T04:40:47.731Z,99603.28
2023-02-19T04:43:16.477Z,99603.22
2023-02-19T04:45:45.083Z,99598.94
2023-02-19T04:48:13.838Z,99605.72
2023-02-19T04:50:42.602Z,99609.16
2023-02-19T04:53:12.452Z,99609.13
2023-02-19T04:55:41.610Z,99611.66
2023-02-19T04:58:10.083Z,99620.94
2023-02-19T05:00:38.720Z,99616.69
2023-02-19T05:03:07.375Z,99608.22
2023-02-19T05:05:36.715Z,99603.13
2023-02-19T05:08:05.794Z,99601.44
2023-02-19T05:10:35.887Z,99609.06
2023-02-19T05:13:04.475Z,99603.13
2023-02-19T05:15:33.197Z,99610.75
2023-02-19T05:18:01.857Z,99604.78
2023-02-19T05:20:30.335Z,99594.59
2023-02-19T05:22:59.066Z,99593.75
2023-02-19T05:25:27.693Z,99598.84
2023-02-19T05:28:17.153Z,99600.53
2023-02-19T05:30:46.517Z,99603.06
2023-02-19T05:33:16.096Z,99601.34
2023-02-19T05:35:46.561Z,99588.66
2023-02-19T05:38:15.176Z,99592.91
2023-02-19T05:40:44.296Z,99588.69
2023-02-19T05:43:14.923Z,99586.19
2023-02-19T05:45:43.943Z,99590.41
2023-02-19T05:48:13.638Z,99585.38
2023-02-19T05:50:42.299Z,99579.44
2023-02-19T05:53:11.641Z,99583.69
2023-02-19T05:55:40.250Z,99583.72
2023-02-19T05:58:08.911Z,99587.16
2023-02-19T06:00:38.852Z,99588.06
2023-02-19T06:03:07.284Z,99598.25
2023-02-19T06:05:35.721Z,99593.16
2023-02-19T06:08:04.230Z,99592.31
2023-02-19T06:10:32.911Z,99591.50
2023-02-19T06:13:01.326Z,99588.09
2023-02-19T06:15:29.842Z,99596.63
2023-02-19T06:17:59.838Z,99590.66
2023-02-19T06:20:28.426Z,99594.91
2023-02-19T06:22:57.100Z,99597.47
2023-02-19T06:25:25.611Z,99605.13
2023-02-19T06:27:54.054Z,99600.03
2023-02-19T06:30:22.487Z,99605.97
2023-02-19T06:32:54.285Z,99611.94
2023-02-19T06:35:24.505Z,99607.75
2023-02-19T06:37:53.973Z,99607.75
2023-02-19T06:40:22.450Z,99597.63
2023-02-19T06:42:51.164Z,99601.06
2023-02-19T06:45:20.565Z,99607.09
2023-02-19T06:47:49.037Z,99595.22
2023-02-19T06:50:17.592Z,99593.63
2023-02-19T06:52:47.379Z,99600.47
2023-02-19T06:55:16.068Z,99597.97
2023-02-19T06:57:44.431Z,99605.59
2023-02-19T07:00:13.808Z,99603.88
2023-02-19T07:02:42.436Z,99610.69
2023-02-19T07:05:10.948Z,99612.34
2023-02-19T07:07:39.740Z,99608.06
2023-02-19T07:10:10.266Z,99612.31
2023-02-19T07:12:38.699Z,99608.91
2023-02-19T07:15:07.971Z,99620.78
2023-02-19T07:17:36.497Z,99620.84
2023-02-19T07:20:05.433Z,99628.47
2023-02-19T07:22:33.929Z,99616.56
2023-02-19T07:25:02.261Z,99620.75
2023-02-19T07:27:32.223Z,99623.34
2023-02-19T07:30:00.771Z,99628.44
2023-02-19T07:32:29.289Z,99630.13
2023-02-19T07:34:57.760Z,99621.63
2023-02-19T07:37:26.359Z,99627.59
2023-02-19T07:39:55.174Z,99629.28
2023-02-19T07:42:23.562Z,99629.31
2023-02-19T07:44:53.308Z,99628.50
2023-02-19T07:47:21.942Z,99618.34
2023-02-19T07:49:50.424Z,99628.56
2023-02-19T07:52:18.950Z,99630.25
2023-02-19T07:54:47.790Z,99640.53
2023-02-19T07:57:16.242Z,99632.91
2023-02-19T07:59:44.639Z,99635.50
2023-02-19T08:02:35.513Z,99627.06
2023-02-19T08:05:04.416Z,99633.97
2023-02-19T08:07:33.814Z,99632.31
2023-02-19T08:10:20.386Z,99644.28
2023-02-19T08:13:14.732Z,99634.13
2023-02-19T08:15:43.180Z,99641.84
2023-02-19T08:18:14.714Z,99646.13
2023-02-19T08:20:43.552Z,99649.50
2023-02-19T08:23:16.922Z,99651.25
2023-02-19T08:25:45.621Z,99655.53
2023-02-19T08:28:14.744Z,99653.00
2023-02-19T08:30:46.001Z,99657.31
2023-02-19T08:33:19.524Z,99661.59
2023-02-19T08:35:48.573Z,99665.91
2023-02-19T08:38:17.456Z,99658.31
2023-02-19T08:40:46.100Z,99663.44
2023-02-19T08:43:17.649Z,99660.03
2023-02-19T08:45:48.424Z,99652.41
2023-02-19T08:48:18.223Z,99661.78
2023-02-19T08:50:46.607Z,99658.41
2023-02-19T08:53:15.045Z,99663.53
2023-02-19T08:55:43.409Z,99661.00
2023-02-19T08:58:12.809Z,99661.81
2023-02-19T09:00:41.558Z,99655.88
2023-02-19T09:03:10.943Z,99651.66
2023-02-19T09:05:41.275Z,99655.91
2023-02-19T09:08:11.811Z,99650.78
2023-02-19T09:10:40.323Z,99660.19
2023-02-19T09:13:09.010Z,99661.09
2023-02-19T09:15:39.354Z,99660.25
2023-02-19T09:18:08.076Z,99668.81
2023-02-19T09:20:36.570Z,99662.00
2023-02-19T09:23:06.281Z,99670.50
2023-02-19T09:25:34.873Z,99662.00
2023-02-19T09:28:03.236Z,99669.66
2023-02-19T09:30:31.613Z,99668.00
2023-02-19T09:33:00.024Z,99675.66
2023-02-19T09:35:28.459Z,99663.75
2023-02-19T09:37:56.942Z,99665.47
2023-02-19T09:40:26.734Z,99663.84
2023-02-19T09:42:55.281Z,99663.00
2023-02-19T09:45:27.307Z,99671.53
2023-02-19T09:47:59.273Z,99672.34
2023-02-19T09:50:35.641Z,99674.91
2023-02-19T09:53:11.634Z,99671.50
2023-02-19T09:55:44.549Z,99674.03
2023-02-19T09:58:27.357Z,99674.94
2023-02-19T10:00:58.780Z,99673.28
2023-02-19T10:03:34.326Z,99681.81
2023-02-19T10:06:12.477Z,99679.25
2023-02-19T10:08:42.771Z,99668.31
2023-02-19T10:11:14.613Z,99661.69
2023-02-19T10:13:46.845Z,99659.56
2023-02-19T10:16:20.603Z,99647.44
2023-02-19T10:18:49.640Z,99650.25
2023-02-19T10:21:22.854Z,99652.47
2023-02-19T10:23:55.830Z,99659.16
2023-02-19T10:26:25.716Z,99659.22
2023-02-19T10:28:55.615Z,99666.75
2023-02-19T10:31:26.855Z,99668.78
2023-02-19T10:33:57.806Z,99670.50
2023-02-19T10:36:32.326Z,99671.16
2023-02-19T10:39:02.367Z,99681.03
2023-02-19T10:41:32.772Z,99678.72
2023-02-19T10:44:08.255Z,99678.47
2023-02-19T10:46:43.209Z,99679.94
2023-02-19T10:49:26.586Z,99690.16
2023-02-19T10:51:57.246Z,99682.69
2023-02-19T10:54:31.416Z,99698.44
2023-02-19T10:57:30.136Z,99697.06
2023-02-19T11:00:02.388Z,99692.03
2023-02-19T11:02:33.065Z,99697.06
2023-02-19T11:05:18.151Z,99690.28
2023-02-19T11:07:49.483Z,99687.84
2023-02-19T11:10:30.253Z,99698.19
2023-02-19T11:13:04.635Z,99688.88
2023-02-19T11:15:35.372Z,99698.31
2023-02-19T11:18:16.192Z,99700.91
2023-02-19T11:20:51.214Z,99697.50
2023-02-19T11:23:25.108Z,99700.97
2023-02-19T11:25:57.354Z,99697.53
2023-02-19T11:28:33.512Z,99697.50
2023-02-19T11:31:25.776Z,99700.06
2023-02-19T11:33:59.894Z,99699.25
2023-02-19T11:36:34.094Z,99704.34
2023-02-19T11:39:21.461Z,99704.31
2023-02-19T11:42:34.555Z,99702.63
2023-02-19T11:45:31.084Z,99700.97
2023-02-19T11:48:33.918Z,99695.84
2023-02-19T11:51:40.634Z,99696.50
2023-02-19T11:54:32.672Z,99688.41
2023-02-19T11:57:23.247Z,99691.41
2023-02-19T12:00:02.737Z,99702.03
2023-02-19T12:03:46.892Z,99695.25
2023-02-19T12:06:29.575Z,99705.09
2023-02-19T12:09:34.674Z,99708.81
2023-02-19T12:12:20.948Z,99710.28
2023-02-19T12:15:20.783Z,99718.88
2023-02-19T12:18:29.563Z,99715.03
2023-02-19T12:21:13.317Z,99712.09
2023-02-19T12:24:10.554Z,99706.88
2023-02-19T12:26:48.604Z,99716.94
2023-02-19T12:29:47.239Z,99724.81
2023-02-19T12:32:37.376Z,99727.75
2023-02-19T12:35:51.500Z,99730.31
2023-02-19T12:38:32.559Z,99734.94
2023-02-19T12:41:19.880Z,99751.81
2023-02-19T12:43:55.674Z,99757.84
2023-02-19T12:46:33.165Z,99750.59
2023-02-19T12:49:10.995Z,99759.34
2023-02-19T12:51:46.718Z,99767.81
2023-02-19T12:54:23.873Z,99766.94
2023-02-19T12:57:01.501Z,99764.75
2023-02-19T12:59:36.427Z,99758.84
2023-02-19T13:02:14.854Z,99754.22
2023-02-19T13:04:50.391Z,99755.56
2023-02-19T13:07:26.365Z,99750.72
2023-02-19T13:09:59.870Z,99752.97
2023-02-19T13:12:34.134Z,99756.28
2023-02-19T13:15:10.859Z,99750.75
2023-02-19T13:17:45.036Z,99745.47
2023-02-19T13:20:21.645Z,99750.94
2023-02-19T13:23:20.625Z,99755.09
2023-02-19T13:26:11.139Z,99764.28
2023-02-19T13:29:01.164Z,99766.75
2023-02-19T13:32:10.181Z,99771.50
2023-02-19T13:34:57.231Z,99769.03
2023-02-19T13:37:26.429Z,99772.97
2023-02-19T13:40:09.486Z,99786.47
2023-02-19T13:42:38.760Z,99779.16
2023-02-19T13:45:08.623Z,99789.66
2023-02-19T13:48:03.724Z,99794.13
2023-02-19T13:50:34.016Z,99801.03
2023-02-19T13:53:08.530Z,99808.72
2023-02-19T13:55:54.809Z,99812.22
2023-02-19T13:58:55.954Z,99796.09
2023-02-19T14:02:27.598Z,99812.47
2023-02-19T14:05:00.241Z,99812.56
2023-02-19T14:08:01.314Z,99815.22
2023-02-19T14:11:05.093Z,99815.28
2023-02-19T14:14:32.905Z,99817.91
2023-02-19T14:17:25.612Z,99829.84
2023-02-19T14:20:00.306Z,99842.66
2023-02-19T14:23:17.278Z,99844.31
2023-02-19T14:25:50.515Z,99842.63
2023-02-19T14:28:29.949Z,99846.81
2023-02-19T14:31:02.119Z,99843.38
2023-02-19T14:33:34.285Z,99849.31
2023-02-19T14:36:07.187Z,99850.16
2023-02-19T14:38:40.236Z,99853.50
2023-02-19T14:41:12.619Z,99853.44
2023-02-19T14:43:43.609Z,99854.28
2023-02-19T14:46:21.508Z,99852.59
2023-02-19T14:48:51.902Z,99850.84
2023-02-19T14:51:31.452Z,99859.34
2023-02-19T14:54:15.539Z,99855.88
2023-02-19T14:56:47.995Z,99858.38
2023-02-19T14:59:30.380Z,99873.72
2023-02-19T15:02:01.563Z,99871.97
2023-02-19T15:04:35.898Z,99883.88
2023-02-19T15:07:09.322Z,99885.56
2023-02-19T15:09:43.514Z,99890.59
2023-02-19T15:12:18.374Z,99888.00
2023-02-19T15:14:49.876Z,99887.13
2023-02-19T15:17:27.207Z,99895.56
2023-02-19T15:19:56.721Z,99900.66
2023-02-19T15:22:28.732Z,99903.16
2023-02-19T15:24:57.578Z,99914.22
2023-02-19T15:27:26.726Z,99930.38
2023-02-19T15:29:57.147Z,99920.13
2023-02-19T15:32:28.858Z,99928.63
2023-02-19T15:34:59.607Z,99917.53
2023-02-19T15:37:30.921Z,99926.03
2023-02-19T15:40:04.195Z,99935.38
2023-02-19T15:42:36.245Z,99929.41
2023-02-19T15:45:18.833Z,99928.59
2023-02-19T15:47:52.496Z,99941.34
2023-02-19T15:50:26.432Z,99935.41
2023-02-19T15:53:03.703Z,99946.47
2023-02-19T15:55:39.627Z,99941.31
2023-02-19T15:58:18.909Z,99939.59
2023-02-19T16:00:52.439Z,99947.22
2023-02-19T16:03:23.553Z,99950.56
2023-02-19T16:06:01.997Z,99953.91
2023-02-19T16:08:32.999Z,99958.91
2023-02-19T16:11:05.028Z,99965.69
2023-02-19T16:13:35.501Z,99966.47
2023-02-19T16:16:16.618Z,99968.19
2023-02-19T16:18:47.858Z,99973.25
2023-02-19T16:21:21.501Z,99985.97
2023-02-19T16:23:54.925Z,99991.06
2023-02-19T16:26:24.080Z,99999.53
2023-02-19T16:28:54.608Z,99997.75
2023-02-19T16:31:25.675Z,100005.38
2023-02-19T16:33:54.201Z,100002.78
2023-02-19T16:36:43.566Z,100013.81
2023-02-19T16:39:23.489Z,100018.88
2023-02-19T16:42:19.589Z,100020.53
2023-02-19T16:44:49.532Z,100017.13
2023-02-19T16:47:36.143Z,100017.13
2023-02-19T16:50:14.134Z,100028.13
2023-02-19T16:52:52.996Z,100031.53
2023-02-19T16:55:23.441Z,100039.22
2023-02-19T16:57:52.324Z,100033.22
2023-02-19T17:00:23.381Z,100030.69
2023-02-19T17:02:56.890Z,100037.47
2023-02-19T17:05:28.822Z,100037.47
2023-02-19T17:07:57.334Z,100049.38
2023-02-19T17:10:29.023Z,100047.69
2023-02-19T17:12:58.033Z,100040.84
2023-02-19T17:15:26.553Z,100053.56
2023-02-19T17:17:56.460Z,100045.06
2023-02-19T17:20:30.403Z,100055.28
2023-02-19T17:23:01.489Z,100056.88
2023-02-19T17:25:29.980Z,100061.06
2023-02-19T17:27:58.368Z,100055.91
2023-02-19T17:30:31.898Z,100062.59
2023-02-19T17:33:03.532Z,100065.94
2023-02-19T17:35:31.974Z,100079.47
2023-02-19T17:38:00.752Z,100080.25
2023-02-19T17:40:33.853Z,100085.28
2023-02-19T17:43:03.185Z,100076.72
2023-02-19T17:45:31.728Z,100095.44
2023-02-19T17:48:02.155Z,100101.38
2023-02-19T17:50:33.393Z,100102.22
2023-02-19T17:53:02.082Z,100103.91
2023-02-19T17:55:30.541Z,100110.72
2023-02-19T17:57:59.150Z,100110.72
2023-02-19T18:00:31.752Z,100116.59
2023-02-19T18:03:01.677Z,100119.94
2023-02-19T18:05:30.140Z,100130.13
2023-02-19T18:07:58.584Z,100130.06
2023-02-19T18:10:27.007Z,100135.91
2023-02-19T18:12:55.459Z,100138.41
2023-02-19T18:15:26.907Z,100146.84
2023-02-19T18:17:56.687Z,100141.69
2023-02-19T18:20:28.788Z,100152.69
2023-02-19T18:22:58.414Z,100153.44
2023-02-19T18:25:27.683Z,100154.28
2023-02-19T18:27:56.651Z,100154.19
2023-02-19T18:30:25.335Z,100158.38
2023-02-19T18:32:53.819Z,100154.13
2023-02-19T18:35:23.117Z,100154.91
2023-02-19T18:37:54.275Z,100153.13
2023-02-19T18:40:25.904Z,100165.00
2023-02-19T18:42:54.563Z,100160.69
2023-02-19T18:45:23.012Z,100160.63
2023-02-19T18:47:51.797Z,100157.16
2023-02-19T18:50:21.179Z,100160.50
2023-02-19T18:52:49.704Z,100172.34
2023-02-19T18:55:20.645Z,100162.03
2023-02-19T18:57:50.190Z,100173.06
2023-02-19T19:00:22.817Z,100179.78
2023-02-19T19:02:51.866Z,100184.84
2023-02-19T19:05:23.238Z,100198.38
2023-02-19T19:07:52.960Z,100200.00
2023-02-19T19:10:24.115Z,100199.06
2023-02-19T19:12:54.188Z,100200.75
2023-02-19T19:15:24.095Z,100202.38
2023-02-19T19:17:52.870Z,100206.53
2023-02-19T19:20:24.666Z,100210.75
2023-02-19T19:22:54.265Z,100208.97
2023-02-19T19:25:24.460Z,100205.56
2023-02-19T19:27:56.650Z,100204.59
2023-02-19T19:30:25.362Z,100214.72
2023-02-19T19:32:54.134Z,100215.53
2023-02-19T19:35:23.678Z,100213.81
2023-02-19T19:37:52.092Z,100218.84
2023-02-19T19:40:21.178Z,100229.78
2023-02-19T19:42:54.246Z,100230.50
2023-02-19T19:45:22.877Z,100238.84
2023-02-19T19:47:52.932Z,100242.97
2023-02-19T19:50:22.256Z,100240.41
2023-02-19T19:52:50.758Z,100243.72
2023-02-19T19:55:21.430Z,100239.41
2023-02-19T19:57:50.387Z,100239.31
2023-02-19T20:00:23.634Z,100239.25
2023-02-19T20:02:52.211Z,100240.84
2023-02-19T20:05:20.863Z,100239.97
2023-02-19T20:07:49.674Z,100238.19
2023-02-19T20:10:20.052Z,100243.28
2023-02-19T20:12:48.930Z,100234.72
2023-02-19T20:15:23.756Z,100233.84
2023-02-19T20:17:52.528Z,100243.94
2023-02-19T20:20:22.866Z,100254.03
2023-02-19T20:22:52.970Z,100247.22
2023-02-19T20:25:23.901Z,100250.50
2023-02-19T20:27:53.385Z,100256.44
2023-02-19T20:30:25.709Z,100258.88
2023-02-19T20:32:54.618Z,100263.13
2023-02-19T20:35:26.566Z,100266.44
2023-02-19T20:37:55.711Z,100263.84
2023-02-19T20:40:30.535Z,100272.28
2023-02-19T20:43:00.925Z,100274.72
2023-02-19T20:45:32.258Z,100282.31
2023-02-19T20:48:00.981Z,100286.47
2023-02-19T20:50:29.475Z,100293.25
2023-02-19T20:52:58.150Z,100296.63
2023-02-19T20:55:26.727Z,100305.06
2023-02-19T20:57:57.417Z,100304.16
2023-02-19T21:00:26.013Z,100308.34
2023-02-19T21:02:55.967Z,100313.34
2023-02-19T21:05:24.631Z,100316.66
2023-02-19T21:07:52.994Z,100323.38
2023-02-19T21:10:21.374Z,100314.00
2023-02-19T21:12:50.688Z,100314.81
2023-02-19T21:15:21.706Z,100321.59
2023-02-19T21:17:50.815Z,100326.59
2023-02-19T21:20:21.133Z,100333.38
2023-02-19T21:22:49.609Z,100326.56
2023-02-19T21:25:18.365Z,100321.47
2023-02-19T21:27:56.534Z,100317.19
2023-02-19T21:30:25.069Z,100319.72
2023-02-19T21:32:53.516Z,100319.69
2023-02-19T21:35:23.332Z,100315.38
2023-02-19T21:37:51.915Z,100307.69
2023-02-19T21:40:22.060Z,100310.16
2023-02-19T21:42:50.473Z,100310.94
2023-02-19T21:45:19.034Z,100313.44
2023-02-19T21:47:47.902Z,100311.69
2023-02-19T21:50:16.304Z,100317.50
2023-02-19T21:52:46.096Z,100327.63
2023-02-19T21:55:14.560Z,100323.34
2023-02-19T21:57:43.127Z,100340.25
2023-02-19T22:00:13.531Z,100326.66
2023-02-19T22:02:43.134Z,100335.97
2023-02-19T22:05:11.759Z,100333.31
2023-02-19T22:07:40.355Z,100337.56
2023-02-19T22:10:12.006Z,100338.34
2023-02-19T22:12:40.529Z,100350.16
2023-02-19T22:15:09.948Z,100348.34
2023-02-19T22:17:38.470Z,100345.72
2023-02-19T22:20:08.862Z,100349.84
2023-02-19T22:22:37.292Z,100351.50
2023-02-19T22:25:06.336Z,100359.09
2023-02-19T22:27:36.450Z,100359.91
2023-02-19T22:30:06.048Z,100364.09
2023-02-19T22:32:34.858Z,100366.63
2023-02-19T22:35:03.287Z,100356.38
2023-02-19T22:37:31.646Z,100346.22
2023-02-19T22:40:00.159Z,100348.81
2023-02-19T22:42:29.464Z,100352.25
2023-02-19T22:44:59.522Z,100354.06
2023-02-19T22:47:29.020Z,100351.63
2023-02-19T22:49:57.411Z,100355.00
2023-02-19T22:52:28.137Z,100350.81
2023-02-19T22:54:56.821Z,100353.41
2023-02-19T22:57:25.243Z,100351.66
2023-02-19T22:59:53.643Z,100358.47
2023-02-19T23:02:23.407Z,100357.66
2023-02-19T23:04:51.960Z,100358.66
2023-02-19T23:07:22.974Z,100352.81
2023-02-19T23:09:51.417Z,100336.00
2023-02-19T23:12:19.850Z,100334.31
2023-02-19T23:14:48.447Z,100349.53
2023-02-19T23:17:16.861Z,100347.94
2023-02-19T23:19:47.173Z,100359.81
2023-02-19T23:22:15.789Z,100358.19
2023-02-19T23:24:44.197Z,100365.00
2023-02-19T23:27:12.708Z,100360.84
2023-02-19T23:29:41.193Z,100364.22
2023-02-19T23:32:09.715Z,100376.09
2023-02-19T23:34:38.192Z,100374.38
2023-02-19T23:37:08.098Z,100360.84
2023-02-19T23:39:36.550Z,100367.66
2023-02-19T23:42:05.135Z,100364.28
2023-02-19T23:44:33.598Z,100364.28
2023-02-19T23:47:02.049Z,100352.50
2023-02-19T23:49:30.659Z,100358.44
2023-02-19T23:51:59.184Z,100342.34
2023-02-19T23:54:31.577Z,100340.69
2023-02-19T23:57:00.301Z,100335.56
2023-02-19T23:59:28.750Z,100327.00
